Pipe Creek, Indiana
Current Conditions -  °F | °C
As of 3:55 AM on Monday 20 Oct 2014 (Local Time) from KMZZ Reporting Station
Haze Haze  
Wind Chill: 44°   Ceiling: 11000
Heat Index: 47°   Visibility: 5mi
Dew Point: 41°   Wind: 7mph
Humidity: 80%   Direction: 210°SSW
Pressure: 29.97"   Gusts: NA
Location:  40.3067°N, 85.834°W
Report Text: KMZZ 200755Z AUTO 21006KT 5SM HZ OVC110 08/05 A2997 RMK AO2 T00830051
Loading
Personal Weather Stations






























Interactive Weather Map
Tropical Storm Tracking
New forecast layout! Learn more

10-Day Weather Forecast

Advertisements
Track Severe Weather on mobile